createdAt,value
2023-02-24T00:02:01.041Z,10.15
2023-02-24T00:04:31.289Z,10.73
2023-02-24T00:07:02.328Z,8.88
2023-02-24T00:09:31.825Z,10.90
2023-02-24T00:12:03.296Z,8.73
2023-02-24T00:14:33.693Z,7.88
2023-02-24T00:17:02.307Z,8.80
2023-02-24T00:19:34.080Z,12.50
2023-02-24T00:22:07.161Z,8.65
2023-02-24T00:24:37.402Z,9.67
2023-02-24T00:27:11.443Z,11.85
2023-02-24T00:29:40.911Z,14.83
2023-02-24T00:32:12.815Z,7.03
2023-02-24T00:34:42.160Z,11.75
2023-02-24T00:37:12.353Z,11.93
2023-02-24T00:39:42.059Z,19.70
2023-02-24T00:42:12.367Z,6.28
2023-02-24T00:44:42.899Z,8.10
2023-02-24T00:47:11.988Z,8.70
2023-02-24T00:49:42.588Z,16.10
2023-02-24T00:52:14.712Z,8.00
2023-02-24T00:54:43.713Z,15.15
2023-02-24T00:57:12.568Z,15.38
2023-02-24T00:59:41.006Z,6.47
2023-02-24T01:02:11.484Z,15.95
2023-02-24T01:04:40.024Z,8.07
2023-02-24T01:07:11.027Z,8.15
2023-02-24T01:09:42.699Z,11.18
2023-02-24T01:12:25.944Z,6.13
2023-02-24T01:14:55.420Z,8.43
2023-02-24T01:17:25.532Z,8.30
2023-02-24T01:19:55.195Z,6.65
2023-02-24T01:22:23.953Z,5.53
2023-02-24T01:24:53.912Z,7.20
2023-02-24T01:27:22.367Z,9.50
2023-02-24T01:29:51.021Z,8.57
2023-02-24T01:32:24.432Z,1.48
2023-02-24T01:34:53.817Z,4.50
2023-02-24T01:37:22.613Z,4.75
2023-02-24T01:39:52.026Z,6.55
2023-02-24T01:42:23.472Z,7.90
2023-02-24T01:45:14.419Z,6.53
2023-02-24T01:47:45.146Z,5.75
2023-02-24T01:50:16.024Z,6.50
2023-02-24T01:52:48.019Z,6.90
2023-02-24T01:55:22.467Z,7.15
2023-02-24T01:57:53.766Z,3.30
2023-02-24T02:00:36.335Z,3.45
2023-02-24T02:03:21.069Z,3.60
2023-02-24T02:05:49.527Z,5.63
2023-02-24T02:08:19.806Z,5.80
2023-02-24T02:10:49.393Z,5.55
2023-02-24T02:13:21.462Z,7.30
2023-02-24T02:16:07.220Z,10.30
2023-02-24T02:18:49.028Z,7.80
2023-02-24T02:21:58.519Z,7.13
2023-02-24T02:24:37.610Z,9.80
2023-02-24T02:27:37.109Z,9.85
2023-02-24T02:30:44.170Z,11.38
2023-02-24T02:34:01.151Z,10.05
2023-02-24T02:36:38.970Z,6.37
2023-02-24T02:39:15.217Z,12.25
2023-02-24T02:41:51.765Z,6.68
2023-02-24T02:44:26.516Z,11.30
2023-02-24T02:46:59.094Z,10.27
2023-02-24T02:49:33.212Z,10.73
2023-02-24T02:52:13.801Z,10.30
2023-02-24T02:54:49.773Z,6.72
2023-02-24T02:57:22.611Z,6.97
2023-02-24T02:59:56.236Z,7.23
2023-02-24T03:02:29.866Z,8.80
2023-02-24T03:05:02.173Z,5.27
2023-02-24T03:07:40.601Z,8.80
2023-02-24T03:10:17.734Z,7.47
2023-02-24T03:12:48.915Z,7.70
2023-02-24T03:15:21.083Z,6.17
2023-02-24T03:17:56.512Z,7.87
2023-02-24T03:20:29.435Z,9.60
2023-02-24T03:23:03.725Z,14.77
2023-02-24T03:25:44.623Z,8.87
2023-02-24T03:28:17.648Z,10.07
2023-02-24T03:30:49.802Z,6.77
2023-02-24T03:33:24.212Z,13.33
2023-02-24T03:35:53.623Z,4.57
2023-02-24T03:38:24.550Z,6.90
2023-02-24T03:40:53.735Z,9.57
2023-02-24T03:43:26.122Z,12.43
2023-02-24T03:45:55.607Z,7.30
2023-02-24T03:48:25.154Z,15.30
2023-02-24T03:50:54.173Z,10.47
2023-02-24T03:53:32.783Z,10.73
2023-02-24T03:56:11.150Z,10.20
2023-02-24T03:58:53.692Z,11.20
2023-02-24T04:01:31.236Z,15.73
2023-02-24T04:04:04.331Z,10.33
2023-02-24T04:06:42.097Z,15.47
2023-02-24T04:09:20.176Z,11.83
2023-02-24T04:11:57.977Z,10.20
2023-02-24T04:14:32.524Z,12.97
2023-02-24T04:17:08.042Z,14.53
2023-02-24T04:19:41.056Z,14.47
2023-02-24T04:22:13.520Z,11.53
2023-02-24T04:24:45.664Z,10.80
2023-02-24T04:27:16.817Z,17.47
2023-02-24T04:29:51.027Z,11.23
2023-02-24T04:32:23.631Z,14.83
2023-02-24T04:34:52.595Z,17.13
2023-02-24T04:37:23.138Z,16.97
2023-02-24T04:39:53.025Z,16.13
2023-02-24T04:42:22.402Z,15.30
2023-02-24T04:44:50.951Z,23.57
2023-02-24T04:47:19.334Z,14.30
2023-02-24T04:49:47.720Z,13.50
2023-02-24T04:52:16.280Z,18.80
2023-02-24T04:54:44.834Z,17.40
2023-02-24T04:57:14.724Z,12.87
2023-02-24T04:59:44.235Z,17.37
2023-02-24T05:02:18.895Z,20.37
2023-02-24T05:04:49.729Z,8.03
2023-02-24T05:07:18.241Z,11.50
2023-02-24T05:09:47.084Z,15.37
2023-02-24T05:12:16.825Z,17.90
2023-02-24T05:14:45.421Z,12.70
2023-02-24T05:17:16.432Z,12.97
2023-02-24T05:20:02.261Z,18.13
2023-02-24T05:22:30.593Z,12.20
2023-02-24T05:24:59.171Z,15.83
2023-02-24T05:27:29.206Z,15.33
2023-02-24T05:29:57.519Z,10.67
2023-02-24T05:32:26.222Z,20.10
2023-02-24T05:34:54.609Z,13.10
2023-02-24T05:37:22.961Z,13.10
2023-02-24T05:39:51.285Z,16.23
2023-02-24T05:42:19.645Z,21.37
2023-02-24T05:44:49.880Z,17.13
2023-02-24T05:47:19.827Z,21.27
2023-02-24T05:49:48.249Z,13.27
2023-02-24T05:52:16.550Z,18.97
2023-02-24T05:54:48.304Z,21.07
2023-02-24T05:57:19.681Z,16.90
2023-02-24T05:59:51.347Z,11.63
2023-02-24T06:02:27.350Z,20.33
2023-02-24T06:04:56.318Z,15.73
2023-02-24T06:07:26.320Z,19.10
2023-02-24T06:09:57.267Z,17.73
2023-02-24T06:12:28.126Z,15.67
2023-02-24T06:14:59.302Z,16.57
2023-02-24T06:17:28.603Z,20.90
2023-02-24T06:19:57.296Z,19.43
2023-02-24T06:22:28.022Z,27.27
2023-02-24T06:24:57.295Z,18.60
2023-02-24T06:27:26.916Z,19.77
2023-02-24T06:29:57.748Z,23.27
2023-02-24T06:32:28.161Z,29.53
2023-02-24T06:34:57.574Z,22.73
2023-02-24T06:37:26.079Z,13.17
2023-02-24T06:39:54.510Z,21.70
2023-02-24T06:42:23.392Z,19.60
2023-02-24T06:44:51.796Z,15.50
2023-02-24T06:47:22.828Z,23.40
2023-02-24T06:49:51.613Z,17.40
2023-02-24T06:52:19.939Z,23.80
2023-02-24T06:54:52.568Z,16.50
2023-02-24T06:57:20.931Z,19.43
2023-02-24T06:59:50.984Z,17.27
2023-02-24T07:02:19.431Z,20.67
2023-02-24T07:04:49.100Z,15.30
2023-02-24T07:07:18.990Z,18.50
2023-02-24T07:09:47.422Z,25.27
2023-02-24T07:12:21.222Z,13.80
2023-02-24T07:14:50.937Z,17.37
2023-02-24T07:17:21.024Z,21.07
2023-02-24T07:19:50.853Z,17.27
2023-02-24T07:22:25.181Z,15.13
2023-02-24T07:25:00.504Z,13.57
2023-02-24T07:27:30.221Z,13.43
2023-02-24T07:29:59.277Z,16.80
2023-02-24T07:32:28.236Z,17.43
2023-02-24T07:34:59.574Z,17.47
2023-02-24T07:37:31.772Z,12.13
2023-02-24T07:40:00.288Z,21.03
2023-02-24T07:42:32.845Z,15.23
2023-02-24T07:45:01.588Z,25.23
2023-02-24T07:47:30.036Z,17.30
2023-02-24T07:50:00.467Z,14.37
2023-02-24T07:52:32.607Z,9.93
2023-02-24T07:55:01.408Z,18.50
2023-02-24T07:57:33.439Z,10.77
2023-02-24T08:00:16.954Z,14.83
2023-02-24T08:02:45.593Z,19.10
2023-02-24T08:05:15.530Z,15.90
2023-02-24T08:07:48.813Z,17.17
2023-02-24T08:10:25.281Z,13.47
2023-02-24T08:12:55.668Z,11.80
2023-02-24T08:15:25.692Z,9.47
2023-02-24T08:17:59.706Z,13.90
2023-02-24T08:20:36.352Z,12.40
2023-02-24T08:23:06.604Z,12.80
2023-02-24T08:25:38.390Z,11.93
2023-02-24T08:28:11.804Z,8.10
2023-02-24T08:30:45.706Z,15.13
2023-02-24T08:33:19.671Z,17.03
2023-02-24T08:36:01.226Z,10.17
2023-02-24T08:38:39.968Z,10.57
2023-02-24T08:41:20.334Z,8.13
2023-02-24T08:43:49.938Z,6.77
2023-02-24T08:46:26.675Z,10.57
2023-02-24T08:48:57.527Z,12.53
2023-02-24T08:51:30.395Z,11.27
2023-02-24T08:54:01.119Z,7.95
2023-02-24T08:56:34.762Z,11.35
2023-02-24T08:59:06.512Z,11.48
2023-02-24T09:01:37.135Z,4.53
2023-02-24T09:04:09.817Z,5.72
2023-02-24T09:07:10.656Z,3.85
2023-02-24T09:09:42.406Z,6.72
2023-02-24T09:12:22.028Z,7.63
2023-02-24T09:14:55.524Z,7.22
2023-02-24T09:17:39.981Z,10.23
2023-02-24T09:20:28.223Z,23.00
2023-02-24T09:23:00.814Z,7.90
2023-02-24T09:25:41.727Z,5.18
2023-02-24T09:28:17.441Z,6.53
2023-02-24T09:30:57.552Z,10.15
2023-02-24T09:33:28.196Z,12.93
2023-02-24T09:36:09.917Z,7.72
2023-02-24T09:38:58.357Z,9.27
2023-02-24T09:41:33.674Z,12.82
2023-02-24T09:44:07.715Z,7.05
2023-02-24T09:46:53.977Z,6.35
2023-02-24T09:49:40.047Z,20.90
2023-02-24T09:52:18.101Z,20.55
2023-02-24T09:55:04.813Z,14.00
2023-02-24T09:58:02.164Z,12.77
2023-02-24T10:00:33.739Z,8.73
2023-02-24T10:03:19.978Z,7.93
2023-02-24T10:05:59.098Z,5.93
2023-02-24T10:08:38.359Z,13.10
2023-02-24T10:11:10.901Z,10.63
2023-02-24T10:13:46.443Z,8.75
2023-02-24T10:16:24.027Z,5.15
2023-02-24T10:19:01.528Z,9.40
2023-02-24T10:21:48.468Z,11.73
2023-02-24T10:24:23.013Z,13.45
2023-02-24T10:27:07.534Z,15.68
2023-02-24T10:29:55.690Z,9.98
2023-02-24T10:32:34.002Z,7.03
2023-02-24T10:35:03.905Z,5.90
2023-02-24T10:37:32.204Z,6.07
2023-02-24T10:40:10.307Z,7.03
2023-02-24T10:42:46.110Z,8.45
2023-02-24T10:45:19.625Z,13.18
2023-02-24T10:47:57.130Z,8.63
2023-02-24T10:50:31.980Z,17.25
2023-02-24T10:53:26.176Z,9.60
2023-02-24T10:56:16.717Z,9.23
2023-02-24T10:58:56.867Z,7.82
2023-02-24T11:01:46.027Z,13.57
2023-02-24T11:04:33.599Z,9.00
2023-02-24T11:07:10.540Z,7.63
2023-02-24T11:09:52.356Z,7.75
2023-02-24T11:12:42.704Z,5.97
2023-02-24T11:15:40.623Z,11.70
2023-02-24T11:18:20.667Z,9.00
2023-02-24T11:20:52.802Z,11.60
2023-02-24T11:23:26.120Z,5.38
2023-02-24T11:25:59.658Z,8.50
2023-02-24T11:28:42.230Z,8.40
2023-02-24T11:31:21.926Z,8.15
2023-02-24T11:34:01.689Z,6.68
2023-02-24T11:36:38.072Z,8.85
2023-02-24T11:39:21.178Z,7.63
2023-02-24T11:41:55.600Z,9.90
2023-02-24T11:44:28.660Z,6.05
2023-02-24T11:47:01.795Z,7.43
2023-02-24T11:49:34.965Z,10.02
2023-02-24T11:52:08.169Z,9.07
2023-02-24T11:54:41.958Z,9.23
2023-02-24T11:57:17.798Z,9.60
2023-02-24T11:59:50.474Z,6.90
2023-02-24T12:02:30.262Z,7.55
2023-02-24T12:05:04.277Z,8.65
2023-02-24T12:07:36.014Z,11.45
2023-02-24T12:10:16.660Z,14.07
2023-02-24T12:12:54.134Z,10.93
2023-02-24T12:15:27.885Z,5.97
2023-02-24T12:18:05.639Z,9.43
2023-02-24T12:20:38.416Z,15.85
2023-02-24T12:23:18.082Z,12.13
2023-02-24T12:26:17.557Z,9.75
2023-02-24T12:29:21.037Z,7.78
2023-02-24T12:31:57.325Z,10.18
2023-02-24T12:34:48.952Z,12.50
2023-02-24T12:37:52.286Z,8.77
2023-02-24T12:40:30.312Z,8.95
2023-02-24T12:43:09.650Z,11.57
2023-02-24T12:45:48.248Z,13.18
2023-02-24T12:48:33.593Z,14.65
2023-02-24T12:51:09.076Z,9.57
2023-02-24T12:53:42.652Z,9.00
2023-02-24T12:56:16.695Z,7.30
2023-02-24T12:58:49.041Z,12.07
2023-02-24T13:01:25.855Z,6.38
2023-02-24T13:04:15.504Z,10.35
2023-02-24T13:07:02.800Z,11.18
2023-02-24T13:09:42.617Z,9.68
2023-02-24T13:12:17.540Z,10.00
2023-02-24T13:14:46.978Z,5.38
2023-02-24T13:17:21.917Z,6.80
2023-02-24T13:19:52.918Z,8.40
2023-02-24T13:22:26.953Z,12.35
2023-02-24T13:25:13.474Z,7.95
2023-02-24T13:27:44.235Z,7.32
2023-02-24T13:30:27.584Z,8.52
2023-02-24T13:33:05.685Z,7.68
2023-02-24T13:35:37.281Z,8.52
2023-02-24T13:38:24.052Z,7.68
2023-02-24T13:40:53.149Z,9.38
2023-02-24T13:43:28.309Z,8.02
2023-02-24T13:45:59.868Z,11.30
2023-02-24T13:48:52.912Z,11.60
2023-02-24T13:51:51.019Z,10.23
2023-02-24T13:54:33.881Z,11.40
2023-02-24T13:57:17.695Z,12.30
2023-02-24T14:00:02.147Z,10.82
2023-02-24T14:02:39.886Z,11.00
2023-02-24T14:05:16.944Z,13.80
2023-02-24T14:07:49.946Z,12.82
2023-02-24T14:10:23.310Z,13.90
2023-02-24T14:12:59.040Z,15.43
2023-02-24T14:15:37.976Z,17.10
2023-02-24T14:18:07.389Z,12.77
2023-02-24T14:20:37.951Z,13.88
2023-02-24T14:23:23.372Z,15.82
2023-02-24T14:25:58.519Z,15.10
2023-02-24T14:28:31.154Z,13.38
2023-02-24T14:31:03.515Z,17.75
2023-02-24T14:33:35.867Z,19.92
2023-02-24T14:36:06.201Z,17.52
2023-02-24T14:38:37.614Z,15.73
2023-02-24T14:41:18.354Z,19.38
2023-02-24T14:43:46.887Z,13.60
2023-02-24T14:46:16.545Z,13.82
2023-02-24T14:48:46.345Z,18.83
2023-02-24T14:51:20.732Z,16.25
2023-02-24T14:53:53.745Z,11.95
2023-02-24T14:56:30.836Z,14.60
2023-02-24T14:59:02.280Z,16.38
2023-02-24T15:01:35.045Z,18.25
2023-02-24T15:04:13.426Z,14.32
2023-02-24T15:06:45.032Z,20.88
2023-02-24T15:09:17.481Z,17.65
2023-02-24T15:11:47.322Z,15.57
2023-02-24T15:14:24.882Z,19.15
2023-02-24T15:16:55.686Z,19.23
2023-02-24T15:19:28.429Z,22.33
2023-02-24T15:21:56.864Z,17.77
2023-02-24T15:24:28.786Z,17.15
2023-02-24T15:27:01.015Z,18.52
2023-02-24T15:29:32.249Z,24.63
2023-02-24T15:32:04.666Z,16.42
2023-02-24T15:34:37.849Z,19.35
2023-02-24T15:37:15.686Z,12.57
2023-02-24T15:39:45.688Z,12.65
2023-02-24T15:42:28.342Z,17.17
2023-02-24T15:44:58.334Z,11.18
2023-02-24T15:47:29.645Z,8.85
2023-02-24T15:49:58.035Z,5.43
2023-02-24T15:52:29.083Z,6.90
2023-02-24T15:55:00.522Z,6.97
2023-02-24T15:57:31.189Z,5.90
2023-02-24T16:00:00.169Z,10.48
2023-02-24T16:02:30.461Z,4.82
2023-02-24T16:04:58.853Z,7.05
2023-02-24T16:07:34.125Z,5.50
2023-02-24T16:10:03.845Z,4.93
2023-02-24T16:12:36.920Z,7.53
2023-02-24T16:15:09.817Z,7.75
2023-02-24T16:17:40.912Z,4.80
2023-02-24T16:20:14.061Z,5.10
2023-02-24T16:22:42.672Z,3.85
2023-02-24T16:25:15.993Z,7.85
2023-02-24T16:27:45.851Z,9.85
2023-02-24T16:30:21.315Z,9.52
2023-02-24T16:32:50.960Z,8.57
2023-02-24T16:35:19.695Z,4.20
2023-02-24T16:37:49.191Z,5.13
2023-02-24T16:40:23.805Z,5.13
2023-02-24T16:42:54.149Z,8.50
2023-02-24T16:45:26.919Z,13.07
2023-02-24T16:47:57.273Z,4.97
2023-02-24T16:50:36.068Z,5.85
2023-02-24T16:53:04.425Z,8.25
2023-02-24T16:55:33.349Z,7.45
2023-02-24T16:58:03.883Z,7.18
2023-02-24T17:00:32.582Z,5.05
2023-02-24T17:03:01.795Z,6.70
2023-02-24T17:05:30.584Z,9.30
2023-02-24T17:07:58.996Z,10.43
2023-02-24T17:10:27.400Z,9.73
2023-02-24T17:12:56.035Z,10.55
2023-02-24T17:15:25.956Z,9.02
2023-02-24T17:17:54.344Z,7.10
2023-02-24T17:20:23.057Z,24.85
2023-02-24T17:22:52.260Z,7.75
2023-02-24T17:25:23.577Z,10.65
2023-02-24T17:27:52.333Z,10.07
2023-02-24T17:30:23.678Z,16.38
2023-02-24T17:32:53.606Z,16.13
2023-02-24T17:35:22.532Z,6.03
2023-02-24T17:37:51.187Z,12.07
2023-02-24T17:40:20.543Z,10.60
2023-02-24T17:42:49.131Z,14.15
2023-02-24T17:45:17.515Z,10.68
2023-02-24T17:47:45.893Z,13.48
2023-02-24T17:50:17.013Z,10.15
2023-02-24T17:52:45.639Z,15.32
2023-02-24T17:55:14.017Z,14.63
2023-02-24T17:57:43.331Z,9.75
2023-02-24T18:00:13.286Z,6.63
2023-02-24T18:02:41.877Z,10.73
2023-02-24T18:05:11.246Z,14.38
2023-02-24T18:07:41.007Z,11.13
2023-02-24T18:10:10.377Z,10.23
2023-02-24T18:12:39.049Z,15.70
2023-02-24T18:15:09.726Z,6.83
2023-02-24T18:17:39.605Z,9.33
2023-02-24T18:20:09.551Z,15.48
2023-02-24T18:22:38.040Z,10.65
2023-02-24T18:25:08.696Z,9.00
2023-02-24T18:27:37.163Z,8.95
2023-02-24T18:30:06.906Z,10.48
2023-02-24T18:32:36.108Z,13.05
2023-02-24T18:35:06.278Z,5.28
2023-02-24T18:37:34.620Z,6.10
2023-02-24T18:40:04.140Z,5.40
2023-02-24T18:42:33.886Z,8.02
2023-02-24T18:45:02.734Z,8.95
2023-02-24T18:47:31.112Z,5.15
2023-02-24T18:49:59.532Z,6.18
2023-02-24T18:52:27.915Z,5.60
2023-02-24T18:54:56.572Z,9.50
2023-02-24T18:57:25.015Z,7.90
2023-02-24T18:59:54.877Z,11.30
2023-02-24T19:02:23.260Z,7.60
2023-02-24T19:04:51.587Z,9.70
2023-02-24T19:07:20.392Z,10.50
2023-02-24T19:09:49.237Z,7.13
2023-02-24T19:12:19.302Z,8.90
2023-02-24T19:14:47.676Z,8.00
2023-02-24T19:17:17.399Z,13.30
2023-02-24T19:19:46.749Z,6.35
2023-02-24T19:22:15.093Z,8.13
2023-02-24T19:24:43.535Z,7.68
2023-02-24T19:27:12.084Z,6.60
2023-02-24T19:29:40.666Z,3.80
2023-02-24T19:32:09.366Z,5.63
2023-02-24T19:34:39.679Z,9.02
2023-02-24T19:37:08.103Z,10.87
2023-02-24T19:39:36.463Z,8.88
2023-02-24T19:42:06.889Z,5.10
2023-02-24T19:44:35.628Z,6.90
2023-02-24T19:47:04.690Z,7.90
2023-02-24T19:49:33.578Z,9.48
2023-02-24T19:52:04.580Z,10.73
2023-02-24T19:54:32.990Z,6.50
2023-02-24T19:57:02.225Z,3.90
2023-02-24T19:59:30.548Z,3.42
2023-02-24T20:01:58.997Z,3.53
2023-02-24T20:04:27.455Z,2.58
2023-02-24T20:06:55.804Z,4.25
2023-02-24T20:09:27.058Z,5.63
2023-02-24T20:11:57.296Z,7.73
2023-02-24T20:14:29.640Z,8.03
2023-02-24T20:16:58.263Z,4.05
2023-02-24T20:19:27.034Z,9.77
2023-02-24T20:21:55.359Z,10.43
2023-02-24T20:24:25.112Z,8.60
2023-02-24T20:26:53.773Z,4.05
2023-02-24T20:29:23.049Z,1.80
2023-02-24T20:31:51.673Z,6.72
2023-02-24T20:34:20.689Z,9.10
2023-02-24T20:36:49.101Z,7.47
2023-02-24T20:39:17.481Z,10.80
2023-02-24T20:41:47.295Z,8.30
2023-02-24T20:44:15.621Z,10.77
2023-02-24T20:46:44.176Z,7.30
2023-02-24T20:49:15.008Z,12.15
2023-02-24T20:51:44.276Z,20.27
2023-02-24T20:54:14.398Z,9.83
2023-02-24T20:56:46.241Z,13.83
2023-02-24T20:59:17.288Z,16.53
2023-02-24T21:01:47.533Z,13.87
2023-02-24T21:04:18.614Z,12.77
2023-02-24T21:06:47.863Z,18.03
2023-02-24T21:09:16.374Z,12.10
2023-02-24T21:11:44.780Z,10.38
2023-02-24T21:14:17.635Z,11.30
2023-02-24T21:16:47.128Z,14.00
2023-02-24T21:19:17.829Z,18.53
2023-02-24T21:21:46.324Z,14.50
2023-02-24T21:24:14.689Z,17.73
2023-02-24T21:26:43.059Z,17.43
2023-02-24T21:29:11.429Z,13.07
2023-02-24T21:31:41.363Z,13.47
2023-02-24T21:34:12.265Z,20.23
2023-02-24T21:36:40.622Z,20.67
2023-02-24T21:39:09.093Z,4.00
2023-02-24T21:41:37.466Z,17.40
2023-02-24T21:44:05.815Z,10.73
2023-02-24T21:46:36.902Z,10.43
2023-02-24T21:49:07.099Z,5.10
2023-02-24T21:51:36.071Z,4.23
2023-02-24T21:54:08.695Z,9.33
2023-02-24T21:56:37.273Z,8.33
2023-02-24T21:59:08.936Z,7.30
2023-02-24T22:01:40.692Z,8.83
2023-02-24T22:04:13.524Z,9.23
2023-02-24T22:06:42.920Z,12.27
2023-02-24T22:09:12.458Z,7.50
2023-02-24T22:11:42.158Z,11.33
2023-02-24T22:14:11.902Z,14.07
2023-02-24T22:16:41.158Z,19.37
2023-02-24T22:19:11.434Z,20.97
2023-02-24T22:21:42.732Z,10.07
2023-02-24T22:24:14.745Z,9.57
2023-02-24T22:26:43.992Z,9.97
2023-02-24T22:29:12.888Z,11.50
2023-02-24T22:31:44.026Z,8.80
2023-02-24T22:34:14.718Z,9.40
2023-02-24T22:36:43.140Z,13.07
2023-02-24T22:39:16.626Z,9.50
2023-02-24T22:41:45.665Z,14.27
2023-02-24T22:44:14.423Z,15.20
2023-02-24T22:46:42.828Z,15.43
2023-02-24T22:49:13.366Z,9.53
2023-02-24T22:51:42.276Z,16.33
2023-02-24T22:54:10.600Z,17.33
2023-02-24T22:56:39.311Z,10.20
2023-02-24T22:59:07.666Z,17.97
2023-02-24T23:01:38.144Z,22.27
2023-02-24T23:04:08.488Z,15.23
2023-02-24T23:06:38.443Z,13.67
2023-02-24T23:09:07.911Z,5.73
2023-02-24T23:11:39.342Z,6.63
2023-02-24T23:14:10.094Z,11.83
2023-02-24T23:16:39.716Z,3.77
2023-02-24T23:19:10.662Z,4.17
2023-02-24T23:21:43.364Z,8.57
2023-02-24T23:24:13.922Z,5.93
2023-02-24T23:26:45.334Z,7.23
2023-02-24T23:29:17.313Z,3.83
2023-02-24T23:31:47.770Z,4.00
2023-02-24T23:34:17.318Z,5.23
2023-02-24T23:36:48.765Z,8.95
2023-02-24T23:39:23.107Z,5.13
2023-02-24T23:41:56.928Z,5.07
2023-02-24T23:44:25.882Z,5.00
2023-02-24T23:46:54.331Z,5.77
2023-02-24T23:49:22.776Z,8.27
2023-02-24T23:51:52.515Z,4.80
2023-02-24T23:54:20.903Z,7.27
2023-02-24T23:56:49.391Z,5.07
2023-02-24T23:59:17.722Z,8.63
